Bookmark and Share
Track history (hours):
 

Kliftrans

Last reported at 2014-Apr-19 04:32 UTC. Time now 2014-Apr-19 05:06 UTC.
Position N 51°54' E 004°21'.

Length 88 m; draft 4.9 m.

Type: Cargo ship. MMSI: 245132000.

NotesDate/timePositionNaut miles runAvg speedWind from/ knotsBaromVisibWave heightAir tempDewpointWater temp
2014-Apr-19 04:32N 51°54' E 004°21'0 0.0
2014-Apr-19 03:17N 51°54' E 004°21'0 0.0
2014-Apr-19 02:32N 51°54' E 004°21'0 0.0
2014-Apr-19 01:29N 51°54' E 004°21'0 0.0
2014-Apr-19 00:32N 51°54' E 004°21'0 0.0
2014-Apr-18 23:29N 51°54' E 004°21'0 0.0
2014-Apr-18 22:23N 51°54' E 004°21'0 0.0
2014-Apr-18 21:29N 51°54' E 004°21'0 0.0
2014-Apr-18 20:23N 51°54' E 004°21'0 0.0
2014-Apr-18 19:31N 51°54' E 004°21'0 0.0
2014-Apr-18 18:28N 51°54' E 004°21'0 0.0
2014-Apr-18 17:31N 51°54' E 004°21'0 0.0
2014-Apr-18 16:28N 51°54' E 004°21'3 3.0
2014-Apr-18 15:33N 51°54' E 004°17'9 9.2
2014-Apr-18 14:32N 51°59' E 004°04'10 9.9
2014-Apr-18 13:31N 52°01' E 003°48'6610.7
2014-Apr-18 07:21N 52°38' E 002°18'910.9
2014-Apr-18 06:31N 52°43' E 002°06'9 9.6
2014-Apr-18 05:33N 52°48' E 001°53'8 8.4
2014-Apr-18 04:33N 52°53' E 001°41'8 7.6
2014-Apr-18 03:34N 52°57' E 001°31'8 7.7
2014-Apr-18 02:33N 53°01' E 001°20'8 8.4
2014-Apr-18 01:33N 53°05' E 001°08'27 9.1
2014-Apr-17 22:33N 53°22' E 000°32'10 9.7
2014-Apr-17 21:34N 53°29' E 000°21'1010.3
2014-Apr-17 20:34N 53°34' E 000°06'1111.0
2014-Apr-17 19:33N 53°39' W 000°11'7 7.1
2014-Apr-17 18:33N 53°43' W 000°21'1 0.8
2014-Apr-17 17:27N 53°43' W 000°22'0 0.0
2014-Apr-17 16:24N 53°43' W 000°22'0 0.0
2014-Apr-17 15:24N 53°43' W 000°22'0 0.0
2014-Apr-17 14:24N 53°43' W 000°22'0 0.0
2014-Apr-17 13:27N 53°43' W 000°22'0 0.0
2014-Apr-17 12:24N 53°43' W 000°22'0 0.0
2014-Apr-17 11:30N 53°43' W 000°22'0 0.0
2014-Apr-17 10:27N 53°43' W 000°22'0 0.0
2014-Apr-17 09:15N 53°43' W 000°22'0 0.0
2014-Apr-17 08:15N 53°43' W 000°22'0 0.0
2014-Apr-17 07:15N 53°43' W 000°22'0 0.0
2014-Apr-17 06:33N 53°43' W 000°22'0 0.0
2014-Apr-17 05:33N 53°43' W 000°22'0 0.0
2014-Apr-17 04:33N 53°42' W 000°22'0 0.0
2014-Apr-17 03:33N 53°43' W 000°22'0 0.0
2014-Apr-17 01:30N 53°42' W 000°22'0 0.0
2014-Apr-17 00:33N 53°42' W 000°22'0 0.0
2014-Apr-16 23:33N 53°43' W 000°22'0 0.0
2014-Apr-16 22:33N 53°43' W 000°22'0 0.0
2014-Apr-16 21:33N 53°43' W 000°22'0 0.0
2014-Apr-16 20:33N 53°43' W 000°22'0 0.0
2014-Apr-16 19:33N 53°42' W 000°22'0 0.0
2014-Apr-16 18:21N 53°42' W 000°22'0 0.0
2014-Apr-16 17:33N 53°43' W 000°22'3 3.2
2014-Apr-16 16:33N 53°45' W 000°18'0 0.3
2014-Apr-16 15:27N 53°45' W 000°17'0 0.0
2014-Apr-16 14:15N 53°45' W 000°17'0 0.0
2014-Apr-16 13:30N 53°45' W 000°17'0 0.0
2014-Apr-16 12:27N 53°45' W 000°17'0 0.0
2014-Apr-16 11:27N 53°45' W 000°17'0 0.0
2014-Apr-16 10:30N 53°45' W 000°17'0 0.0
2014-Apr-16 09:30N 53°45' W 000°17'0 0.0
2014-Apr-16 08:33N 53°45' W 000°17'0 0.0
2014-Apr-16 07:32N 53°45' W 000°17'0 0.0
2014-Apr-16 06:32N 53°45' W 000°17'0 0.0
2014-Apr-16 05:32N 53°45' W 000°17'0 0.0
2014-Apr-16 04:29N 53°45' W 000°17'0 0.0
2014-Apr-16 03:17N 53°45' W 000°17'0 0.0
2014-Apr-16 02:29N 53°45' W 000°17'0 0.0
2014-Apr-16 01:32N 53°45' W 000°17'0 0.0
2014-Apr-16 00:29N 53°45' W 000°17'0 0.0
2014-Apr-15 23:32N 53°45' W 000°17'0 0.0
2014-Apr-15 22:32N 53°45' W 000°17'0 0.0
2014-Apr-15 21:32N 53°45' W 000°17'0 0.0
2014-Apr-15 20:20N 53°45' W 000°17'0 0.0
2014-Apr-15 19:20N 53°45' W 000°17'0 0.0
2014-Apr-15 18:23N 53°45' W 000°17'0 0.0
2014-Apr-15 17:20N 53°45' W 000°17'0 0.0
2014-Apr-15 16:23N 53°45' W 000°17'0 0.0
2014-Apr-15 15:23N 53°45' W 000°17'0 0.0
2014-Apr-15 14:23N 53°45' W 000°17'0 0.0
2014-Apr-15 02:32N 53°45' W 000°17'0 0.0
2014-Apr-15 00:32N 53°45' W 000°17'0 0.0
2014-Apr-14 22:32N 53°45' W 000°17'0 0.0
2014-Apr-14 21:32N 53°45' W 000°17'0 0.0
2014-Apr-14 20:32N 53°45' W 000°17'0 0.0
2014-Apr-14 18:32N 53°45' W 000°17'0 0.0
2014-Apr-14 17:31N 53°45' W 000°17'0 0.1
2014-Apr-14 14:31N 53°45' W 000°18'0 0.4
2014-Apr-14 13:34N 53°44' W 000°18'19 9.5
2014-Apr-14 11:33N 53°33' E 000°09'9 8.4
2014-Apr-14 10:31N 53°33' E 000°23'4 4.2
2014-Apr-14 09:33N 53°35' E 000°29'1 1.4
2014-Apr-14 08:33N 53°34' E 000°29'150 8.7
2014-Apr-13 15:19N 53°28' E 004°41'7 8.9
2014-Apr-13 14:33N 53°30' E 004°51'10 9.7
2014-Apr-13 13:33N 53°34' E 005°06'1010.3
2014-Apr-13 12:33N 53°37' E 005°23'1010.3
2014-Apr-13 11:33N 53°41' E 005°39'1010.2
2014-Apr-13 10:33N 53°44' E 005°56'38 9.0
2014-Apr-13 06:18N 53°54' E 006°58'6 8.6
2014-Apr-13 05:33N 53°56' E 007°09'9 9.4
2014-Apr-13 04:33N 53°58' E 007°24'1010.2
2014-Apr-13 03:32N 54°01' E 007°41'1010.7
2014-Apr-13 02:33N 54°01' E 007°59'1111.2
2014-Apr-13 01:33N 54°00' E 008°18'1211.9
2014-Apr-13 00:33N 53°58' E 008°38'10 9.7
2014-Apr-12 23:33N 53°51' E 008°49'8 8.5
2014-Apr-12 22:33N 53°52' E 009°03'4 3.7
2014-Apr-12 21:33N 53°54' E 009°09'6 6.4
2014-Apr-12 20:33N 53°58' E 009°16'9 8.5
2014-Apr-12 19:33N 54°07' E 009°20'8 8.0
2014-Apr-12 18:33N 54°11' E 009°31'65 6.5
2014-Apr-12 08:33N 54°35' E 011°15'1010.4
2014-Apr-12 07:33N 54°31' E 011°32'1111.5
2014-Apr-12 06:33N 54°29' E 011°51'1110.7
2014-Apr-12 05:33N 54°28' E 012°09'1010.5
2014-Apr-12 04:33N 54°37' E 012°17'1111.0
2014-Apr-12 03:33N 54°43' E 012°33'1111.0
2014-Apr-12 02:33N 54°49' E 012°50'1110.8
2014-Apr-12 01:33N 54°53' E 013°07'1110.8
2014-Apr-12 00:33N 54°57' E 013°25'1110.9
2014-Apr-11 23:33N 55°00' E 013°42'1110.8
2014-Apr-11 22:33N 55°04' E 013°60'1110.8
2014-Apr-11 21:32N 55°11' E 014°14'1110.8
2014-Apr-11 20:33N 55°19' E 014°27'1110.6
2014-Apr-11 19:33N 55°26' E 014°40'1110.7
2014-Apr-11 18:33N 55°32' E 014°56'1110.8
2014-Apr-11 17:30N 55°38' E 015°13'4210.6
2014-Apr-11 13:33N 55°60' E 016°17'  

Dump ship's entire track history

sailing weather and tide predictions

Kliftrans — PCDB — position and weather